createdAt,value
2022-08-17T00:00:00.512Z,99820.13
2022-08-17T00:02:27.568Z,99818.09
2022-08-17T00:04:55.538Z,99825.94
2022-08-17T00:07:23.430Z,99821.44
2022-08-17T00:09:50.492Z,99823.84
2022-08-17T00:12:43.446Z,99824.31
2022-08-17T00:15:06.378Z,99828.25
2022-08-17T00:17:37.453Z,99830.72
2022-08-17T00:20:05.098Z,99823.81
2022-08-17T00:22:46.686Z,99826.97
2022-08-17T00:25:20.093Z,99823.66
2022-08-17T00:27:46.915Z,99826.53
2022-08-17T00:30:14.396Z,99822.75
2022-08-17T00:33:23.097Z,99827.97
2022-08-17T00:35:34.497Z,99816.22
2022-08-17T00:38:01.177Z,99819.53
2022-08-17T00:40:40.784Z,99821.47
2022-08-17T00:43:20.093Z,99819.81
2022-08-17T00:45:47.771Z,99823.91
2022-08-17T00:48:28.932Z,99824.38
2022-08-17T00:51:02.365Z,99825.16
2022-08-17T00:53:31.668Z,99825.37
2022-08-17T00:56:05.101Z,99828.84
2022-08-17T00:58:36.633Z,99825.63
2022-08-17T01:01:06.764Z,99830.53
2022-08-17T01:03:35.850Z,99826.19
2022-08-17T01:06:04.578Z,99821.81
2022-08-17T01:08:32.959Z,99821.84
2022-08-17T01:11:04.165Z,99821.50
2022-08-17T01:13:43.368Z,99823.94
2022-08-17T01:16:30.525Z,99822.75
2022-08-17T01:19:01.187Z,99828.41
2022-08-17T01:21:27.999Z,99836.50
2022-08-17T01:23:55.678Z,99828.19
2022-08-17T01:26:23.308Z,99840.87
2022-08-17T01:28:55.084Z,99831.81
2022-08-17T01:31:23.951Z,99824.56
2022-08-17T01:33:51.096Z,99824.38
2022-08-17T01:36:18.362Z,99832.78
2022-08-17T01:38:45.328Z,99835.47
2022-08-17T01:41:16.627Z,99829.25
2022-08-17T01:43:52.115Z,99828.50
2022-08-17T01:46:23.452Z,99824.22
2022-08-17T01:48:51.319Z,99824.22
2022-08-17T01:51:19.308Z,99828.69
2022-08-17T01:53:52.615Z,99832.16
2022-08-17T01:56:22.658Z,99830.59
2022-08-17T01:58:49.411Z,99837.50
2022-08-17T02:01:19.183Z,99835.78
2022-08-17T02:03:53.337Z,99834.75
2022-08-17T02:06:31.605Z,99836.41
2022-08-17T02:09:17.040Z,99838.50
2022-08-17T02:11:45.252Z,99834.69
2022-08-17T02:14:13.530Z,99835.16
2022-08-17T02:16:41.071Z,99834.28
2022-08-17T02:19:11.314Z,99834.22
2022-08-17T02:21:39.520Z,99828.53
2022-08-17T02:24:11.096Z,99824.41
2022-08-17T02:26:37.968Z,99825.84
2022-08-17T02:29:04.944Z,99820.41
2022-08-17T02:31:31.780Z,99820.97
2022-08-17T02:34:03.896Z,99825.34
2022-08-17T02:36:35.785Z,99819.22
2022-08-17T02:39:04.665Z,99823.13
2022-08-17T02:41:31.573Z,99827.31
2022-08-17T02:43:58.843Z,99817.78
2022-08-17T02:46:26.333Z,99821.22
2022-08-17T02:48:53.028Z,99823.97
2022-08-17T02:51:20.196Z,99825.16
2022-08-17T02:53:47.289Z,99823.09
2022-08-17T02:56:14.199Z,99824.91
2022-08-17T02:58:41.071Z,99824.78
2022-08-17T03:01:10.071Z,99827.19
2022-08-17T03:03:37.890Z,99826.16
2022-08-17T03:06:05.450Z,99836.19
2022-08-17T03:08:32.296Z,99833.31
2022-08-17T03:10:59.075Z,99827.94
2022-08-17T03:13:27.666Z,99835.66
2022-08-17T03:15:54.555Z,99836.25
2022-08-17T03:18:25.264Z,99837.59
2022-08-17T03:21:00.649Z,99837.28
2022-08-17T03:23:29.638Z,99838.47
2022-08-17T03:25:56.865Z,99837.72
2022-08-17T03:28:24.903Z,99838.44
2022-08-17T03:30:52.700Z,99837.22
2022-08-17T03:33:19.569Z,99835.84
2022-08-17T03:35:47.056Z,99831.69
2022-08-17T03:38:16.008Z,99843.97
2022-08-17T03:40:56.625Z,99853.19
2022-08-17T03:43:30.686Z,99853.47
2022-08-17T03:46:33.815Z,99848.13
2022-08-17T03:49:26.194Z,99852.59
2022-08-17T03:52:15.777Z,99848.09
2022-08-17T03:55:02.038Z,99845.16
2022-08-17T03:57:29.307Z,99843.13
2022-08-17T03:59:57.342Z,99853.69
2022-08-17T04:02:25.773Z,99850.81
2022-08-17T04:04:53.953Z,99846.50
2022-08-17T04:07:23.052Z,99849.34
2022-08-17T04:09:50.798Z,99850.59
2022-08-17T04:12:20.117Z,99854.19
2022-08-17T04:14:53.146Z,99858.94
2022-08-17T04:17:26.587Z,99867.06
2022-08-17T04:19:54.489Z,99862.03
2022-08-17T04:22:32.869Z,99862.91
2022-08-17T04:25:09.915Z,99863.09
2022-08-17T04:27:36.759Z,99859.34
2022-08-17T04:30:06.037Z,99854.19
2022-08-17T04:33:04.018Z,99854.56
2022-08-17T04:35:23.901Z,99847.66
2022-08-17T04:37:51.718Z,99853.25
2022-08-17T04:40:38.080Z,99858.28
2022-08-17T04:43:18.648Z,99843.41
2022-08-17T04:45:57.871Z,99844.47
2022-08-17T04:48:36.706Z,99856.37
2022-08-17T04:51:09.926Z,99853.84
2022-08-17T04:53:37.677Z,99852.47
2022-08-17T04:56:05.323Z,99852.91
2022-08-17T04:58:32.199Z,99849.41
2022-08-17T05:00:59.020Z,99849.06
2022-08-17T05:03:26.200Z,99853.50
2022-08-17T05:05:53.818Z,99856.59
2022-08-17T05:08:22.006Z,99851.94
2022-08-17T05:10:49.217Z,99858.81
2022-08-17T05:13:24.889Z,99863.53
2022-08-17T05:15:56.741Z,99863.53
2022-08-17T05:18:24.683Z,99857.81
2022-08-17T05:20:52.485Z,99862.69
2022-08-17T05:23:21.641Z,99854.19
2022-08-17T05:25:51.586Z,99858.84
2022-08-17T05:28:24.147Z,99857.31
2022-08-17T05:30:56.935Z,99854.81
2022-08-17T05:33:27.618Z,99861.41
2022-08-17T05:35:56.606Z,99864.69
2022-08-17T05:38:25.614Z,99865.66
2022-08-17T05:40:53.765Z,99857.66
2022-08-17T05:43:22.382Z,99863.75
2022-08-17T05:45:56.468Z,99862.13
2022-08-17T05:48:35.689Z,99866.00
2022-08-17T05:51:15.634Z,99864.56
2022-08-17T05:53:48.144Z,99868.97
2022-08-17T05:56:34.742Z,99870.41
2022-08-17T05:59:27.183Z,99874.81
2022-08-17T06:02:26.713Z,99867.06
2022-08-17T06:05:05.419Z,99869.28
2022-08-17T06:07:46.269Z,99866.34
2022-08-17T06:10:34.320Z,99867.72
2022-08-17T06:13:12.922Z,99860.25
2022-08-17T06:16:33.794Z,99857.44
2022-08-17T06:19:21.868Z,99863.44
2022-08-17T06:21:53.087Z,99871.09
2022-08-17T06:24:35.458Z,99867.84
2022-08-17T06:27:13.568Z,99864.28
2022-08-17T06:29:58.247Z,99868.69
2022-08-17T06:32:25.779Z,99870.28
2022-08-17T06:34:52.985Z,99863.75
2022-08-17T06:37:48.937Z,99864.41
2022-08-17T06:40:45.948Z,99867.25
2022-08-17T06:43:34.223Z,99864.81
2022-08-17T06:46:11.554Z,99871.59
2022-08-17T06:49:08.282Z,99860.03
2022-08-17T06:51:40.741Z,99874.75
2022-08-17T06:54:19.740Z,99862.69
2022-08-17T06:56:57.503Z,99870.09
2022-08-17T06:59:55.373Z,99864.66
2022-08-17T07:03:01.704Z,99861.72
2022-08-17T07:05:44.708Z,99863.25
2022-08-17T07:08:42.843Z,99866.00
2022-08-17T07:11:26.306Z,99875.69
2022-08-17T07:14:18.537Z,99868.25
2022-08-17T07:16:50.888Z,99858.72
2022-08-17T07:19:22.690Z,99859.09
2022-08-17T07:22:24.987Z,99854.97
2022-08-17T07:25:05.586Z,99855.53
2022-08-17T07:27:40.792Z,99845.53
2022-08-17T07:30:17.880Z,99848.22
2022-08-17T07:32:53.987Z,99854.81
2022-08-17T07:35:40.719Z,99856.44
2022-08-17T07:38:28.746Z,99852.72
2022-08-17T07:41:02.316Z,99858.56
2022-08-17T07:43:39.698Z,99860.81
2022-08-17T07:46:24.735Z,99861.72
2022-08-17T07:48:54.924Z,99862.56
2022-08-17T07:51:25.362Z,99868.06
2022-08-17T07:54:12.905Z,99864.28
2022-08-17T07:56:47.152Z,99865.28
2022-08-17T07:59:23.307Z,99861.94
2022-08-17T08:01:57.521Z,99862.56
2022-08-17T08:05:06.628Z,99864.44
2022-08-17T08:07:42.682Z,99870.41
2022-08-17T08:10:16.971Z,99874.00
2022-08-17T08:12:52.779Z,99870.13
2022-08-17T08:15:25.895Z,99868.16
2022-08-17T08:18:01.616Z,99871.13
2022-08-17T08:21:08.966Z,99870.94
2022-08-17T08:24:14.525Z,99871.72
2022-08-17T08:26:58.472Z,99870.53
2022-08-17T08:29:51.040Z,99874.75
2022-08-17T08:32:51.977Z,99871.97
2022-08-17T08:35:54.062Z,99862.72
2022-08-17T08:38:42.779Z,99873.69
2022-08-17T08:41:27.996Z,99875.22
2022-08-17T08:44:16.455Z,99870.22
2022-08-17T08:46:59.986Z,99874.34
2022-08-17T08:50:01.393Z,99874.31
2022-08-17T08:52:21.819Z,99871.31
2022-08-17T08:54:57.043Z,99865.94
2022-08-17T08:57:34.561Z,99865.75
2022-08-17T09:00:04.912Z,99864.00
2022-08-17T09:02:37.979Z,99853.53
2022-08-17T09:05:22.910Z,99857.53
2022-08-17T09:08:11.283Z,99859.81
2022-08-17T09:11:12.855Z,99853.84
2022-08-17T09:14:01.789Z,99856.03
2022-08-17T09:16:36.180Z,99855.19
2022-08-17T09:19:33.439Z,99857.56
2022-08-17T09:22:31.729Z,99853.28
2022-08-17T09:25:13.830Z,99857.44
2022-08-17T09:28:16.803Z,99853.34
2022-08-17T09:30:55.653Z,99861.50
2022-08-17T09:33:27.216Z,99861.50
2022-08-17T09:36:10.267Z,99862.91
2022-08-17T09:38:58.280Z,99852.53
2022-08-17T09:41:49.132Z,99854.28
2022-08-17T09:44:46.006Z,99846.19
2022-08-17T09:47:45.671Z,99846.28
2022-08-17T09:51:05.423Z,99839.75
2022-08-17T09:53:12.473Z,99851.88
2022-08-17T09:56:14.787Z,99845.66
2022-08-17T09:59:16.987Z,99842.59
2022-08-17T10:01:56.780Z,99844.50
2022-08-17T10:04:39.853Z,99849.94
2022-08-17T10:07:19.076Z,99853.00
2022-08-17T10:09:56.949Z,99846.72
2022-08-17T10:12:47.101Z,99842.13
2022-08-17T10:15:37.489Z,99839.72
2022-08-17T10:18:37.842Z,99839.47
2022-08-17T10:21:30.297Z,99845.28
2022-08-17T10:24:36.500Z,99848.13
2022-08-17T10:27:08.549Z,99838.53
2022-08-17T10:29:48.499Z,99844.53
2022-08-17T10:33:00.864Z,99835.69
2022-08-17T10:36:10.650Z,99834.25
2022-08-17T10:39:00.441Z,99831.38
2022-08-17T10:41:49.624Z,99831.50
2022-08-17T10:44:45.769Z,99827.22
2022-08-17T10:47:16.440Z,99828.53
2022-08-17T10:49:54.239Z,99829.25
2022-08-17T10:52:22.022Z,99834.66
2022-08-17T10:54:51.798Z,99825.59
2022-08-17T10:57:34.466Z,99828.00
2022-08-17T11:00:14.952Z,99826.69
2022-08-17T11:02:53.683Z,99821.91
2022-08-17T11:05:29.601Z,99815.78
2022-08-17T11:08:27.350Z,99809.63
2022-08-17T11:11:09.654Z,99816.63
2022-08-17T11:13:46.183Z,99809.13
2022-08-17T11:16:50.444Z,99813.06
2022-08-17T11:19:26.668Z,99802.47
2022-08-17T11:22:33.573Z,99803.81
2022-08-17T11:25:20.558Z,99803.16
2022-08-17T11:27:54.094Z,99797.75
2022-08-17T11:30:48.594Z,99800.81
2022-08-17T11:33:38.238Z,99796.09
2022-08-17T11:36:37.927Z,99794.59
2022-08-17T11:39:32.530Z,99789.19
2022-08-17T11:42:08.553Z,99783.97
2022-08-17T11:44:53.400Z,99788.75
2022-08-17T11:48:26.708Z,99783.19
2022-08-17T11:51:47.321Z,99776.81
2022-08-17T11:54:39.518Z,99779.63
2022-08-17T11:57:27.924Z,99779.34
2022-08-17T11:59:59.050Z,99784.53
2022-08-17T12:02:32.603Z,99776.91
2022-08-17T12:05:14.686Z,99781.81
2022-08-17T12:07:52.621Z,99765.97
2022-08-17T12:10:30.644Z,99769.62
2022-08-17T12:13:06.201Z,99766.19
2022-08-17T12:15:39.532Z,99770.06
2022-08-17T12:18:06.421Z,99759.63
2022-08-17T12:20:40.240Z,99768.94
2022-08-17T12:23:09.627Z,99768.81
2022-08-17T12:25:39.951Z,99761.50
2022-08-17T12:28:23.279Z,99761.06
2022-08-17T12:30:52.023Z,99755.97
2022-08-17T12:33:27.831Z,99758.53
2022-08-17T12:36:15.734Z,99760.59
2022-08-17T12:39:13.697Z,99757.72
2022-08-17T12:41:47.392Z,99756.09
2022-08-17T12:44:17.274Z,99756.09
2022-08-17T12:47:09.828Z,99763.38
2022-08-17T12:49:39.578Z,99758.94
2022-08-17T12:52:13.746Z,99756.84
2022-08-17T12:54:52.721Z,99758.88
2022-08-17T12:57:31.437Z,99748.81
2022-08-17T13:00:28.954Z,99751.47
2022-08-17T13:02:58.599Z,99745.38
2022-08-17T13:05:30.504Z,99752.59
2022-08-17T13:07:59.927Z,99754.66
2022-08-17T13:10:33.016Z,99745.16
2022-08-17T13:13:05.436Z,99738.94
2022-08-17T13:15:44.444Z,99743.72
2022-08-17T13:18:49.851Z,99735.44
2022-08-17T13:21:19.893Z,99732.56
2022-08-17T13:24:01.906Z,99724.25
2022-08-17T13:26:40.424Z,99725.56
2022-08-17T13:29:16.697Z,99723.06
2022-08-17T13:31:52.450Z,99728.03
2022-08-17T13:34:26.975Z,99725.28
2022-08-17T13:37:25.833Z,99723.84
2022-08-17T13:39:54.821Z,99729.06
2022-08-17T13:42:52.296Z,99725.91
2022-08-17T13:45:36.578Z,99725.97
2022-08-17T13:48:32.197Z,99722.25
2022-08-17T13:50:59.738Z,99721.41
2022-08-17T13:53:33.535Z,99720.06
2022-08-17T13:56:37.027Z,99718.31
2022-08-17T13:59:02.882Z,99719.19
2022-08-17T14:01:37.024Z,99725.28
2022-08-17T14:04:13.789Z,99721.78
2022-08-17T14:06:58.082Z,99718.03
2022-08-17T14:09:32.449Z,99721.38
2022-08-17T14:12:04.334Z,99719.97
2022-08-17T14:14:31.410Z,99716.50
2022-08-17T14:16:58.335Z,99719.72
2022-08-17T14:19:26.335Z,99717.09
2022-08-17T14:21:56.705Z,99718.16
2022-08-17T14:24:26.812Z,99724.78
2022-08-17T14:26:53.955Z,99723.75
2022-08-17T14:29:23.082Z,99723.53
2022-08-17T14:31:54.268Z,99716.56
2022-08-17T14:34:23.132Z,99705.50
2022-08-17T14:36:50.358Z,99703.69
2022-08-17T14:39:18.398Z,99711.87
2022-08-17T14:41:45.575Z,99710.38
2022-08-17T14:44:13.193Z,99705.50
2022-08-17T14:46:41.984Z,99698.53
2022-08-17T14:49:11.478Z,99701.91
2022-08-17T14:51:39.729Z,99694.84
2022-08-17T14:54:11.867Z,99695.44
2022-08-17T14:57:22.220Z,99709.09
2022-08-17T14:59:46.073Z,99704.66
2022-08-17T15:02:13.504Z,99703.91
2022-08-17T15:04:45.339Z,99699.88
2022-08-17T15:07:12.545Z,99710.50
2022-08-17T15:09:39.409Z,99704.37
2022-08-17T15:12:06.782Z,99709.34
2022-08-17T15:14:35.604Z,99713.13
2022-08-17T15:17:03.880Z,99705.91
2022-08-17T15:19:30.921Z,99712.91
2022-08-17T15:21:57.787Z,99713.25
2022-08-17T15:24:24.980Z,99707.47
2022-08-17T15:26:52.075Z,99715.69
2022-08-17T15:29:18.852Z,99718.87
2022-08-17T15:31:45.820Z,99715.28
2022-08-17T15:34:12.574Z,99710.34
2022-08-17T15:36:43.861Z,99710.94
2022-08-17T15:39:19.488Z,99710.78
2022-08-17T15:41:47.564Z,99713.91
2022-08-17T15:44:32.350Z,99709.56
2022-08-17T15:47:02.080Z,99702.41
2022-08-17T15:49:28.896Z,99703.50
2022-08-17T15:51:56.023Z,99706.84
2022-08-17T15:54:23.551Z,99710.69
2022-08-17T15:56:50.630Z,99712.16
2022-08-17T15:59:17.373Z,99705.84
2022-08-17T16:03:04.658Z,99702.28
2022-08-17T16:04:31.745Z,99707.34
2022-08-17T16:06:59.793Z,99698.28
2022-08-17T16:09:27.209Z,99709.72
2022-08-17T16:11:56.320Z,99701.69
2022-08-17T16:14:30.285Z,99698.06
2022-08-17T16:17:01.139Z,99695.75
2022-08-17T16:19:27.954Z,99698.91
2022-08-17T16:21:54.911Z,99706.13
2022-08-17T16:24:21.697Z,99703.72
2022-08-17T16:26:48.893Z,99712.47
2022-08-17T16:29:16.020Z,99710.44
2022-08-17T16:31:43.459Z,99709.59
2022-08-17T16:34:16.813Z,99707.62
2022-08-17T16:36:55.636Z,99711.41
2022-08-17T16:39:25.729Z,99706.28
2022-08-17T16:41:52.710Z,99708.81
2022-08-17T16:44:21.451Z,99714.44
2022-08-17T16:46:49.073Z,99711.41
2022-08-17T16:49:35.332Z,99713.19
2022-08-17T16:52:04.461Z,99712.16
2022-08-17T16:54:31.259Z,99725.34
2022-08-17T16:56:58.176Z,99720.59
2022-08-17T16:59:30.166Z,99717.75
2022-08-17T17:02:05.014Z,99726.41
2022-08-17T17:04:35.171Z,99723.75
2022-08-17T17:07:40.025Z,99717.19
2022-08-17T17:10:15.638Z,99718.63
2022-08-17T17:13:02.899Z,99716.16
2022-08-17T17:16:06.474Z,99716.91
2022-08-17T17:18:53.270Z,99720.59
2022-08-17T17:21:27.527Z,99720.84
2022-08-17T17:24:04.038Z,99721.78
2022-08-17T17:27:18.066Z,99723.22
2022-08-17T17:29:59.005Z,99718.16
2022-08-17T17:32:38.197Z,99723.72
2022-08-17T17:35:25.433Z,99719.41
2022-08-17T17:37:54.228Z,99728.06
2022-08-17T17:40:29.371Z,99724.41
2022-08-17T17:43:14.229Z,99722.81
2022-08-17T17:45:58.636Z,99725.38
2022-08-17T17:48:45.300Z,99736.28
2022-08-17T17:52:06.681Z,99727.81
2022-08-17T17:54:48.200Z,99736.94
2022-08-17T17:57:33.025Z,99736.09
2022-08-17T18:00:05.396Z,99740.47
2022-08-17T18:02:54.947Z,99739.88
2022-08-17T18:05:36.913Z,99738.69
2022-08-17T18:08:33.830Z,99751.47
2022-08-17T18:11:34.906Z,99750.13
2022-08-17T18:14:14.509Z,99745.81
2022-08-17T18:16:42.897Z,99751.75
2022-08-17T18:19:15.859Z,99752.91
2022-08-17T18:21:47.428Z,99763.69
2022-08-17T18:24:14.472Z,99758.25
2022-08-17T18:26:46.109Z,99766.22
2022-08-17T18:29:31.725Z,99767.94
2022-08-17T18:32:32.660Z,99770.69
2022-08-17T18:35:27.852Z,99769.25
2022-08-17T18:38:28.826Z,99773.81
2022-08-17T18:41:02.396Z,99777.75
2022-08-17T18:43:52.881Z,99784.50
2022-08-17T18:46:37.757Z,99785.25
2022-08-17T18:49:28.483Z,99780.84
2022-08-17T18:52:10.952Z,99787.41
2022-08-17T18:54:38.712Z,99790.91
2022-08-17T18:57:07.852Z,99787.81
2022-08-17T18:59:48.441Z,99784.75
2022-08-17T19:02:29.708Z,99787.59
2022-08-17T19:05:04.790Z,99778.22
2022-08-17T19:07:42.251Z,99787.47
2022-08-17T19:10:26.120Z,99779.37
2022-08-17T19:13:00.890Z,99783.31
2022-08-17T19:15:38.099Z,99782.84
2022-08-17T19:18:15.832Z,99772.97
2022-08-17T19:21:00.857Z,99776.47
2022-08-17T19:23:36.768Z,99778.91
2022-08-17T19:26:50.318Z,99777.59
2022-08-17T19:29:02.491Z,99779.81
2022-08-17T19:31:31.403Z,99781.66
2022-08-17T19:34:00.772Z,99786.22
2022-08-17T19:36:40.875Z,99783.75
2022-08-17T19:39:22.709Z,99781.69
2022-08-17T19:42:01.363Z,99782.09
2022-08-17T19:45:16.322Z,99776.66
2022-08-17T19:47:55.330Z,99777.34
2022-08-17T19:50:41.392Z,99777.78
2022-08-17T19:54:01.750Z,99775.25
2022-08-17T19:56:31.892Z,99790.06
2022-08-17T19:59:26.534Z,99786.41
2022-08-17T20:02:01.421Z,99788.59
2022-08-17T20:04:41.463Z,99788.59
2022-08-17T20:07:20.213Z,99788.03
2022-08-17T20:09:53.024Z,99790.00
2022-08-17T20:12:28.434Z,99789.13
2022-08-17T20:15:00.464Z,99794.31
2022-08-17T20:17:34.579Z,99785.91
2022-08-17T20:20:38.901Z,99791.72
2022-08-17T20:23:32.938Z,99794.13
2022-08-17T20:26:10.229Z,99784.53
2022-08-17T20:28:39.331Z,99780.59
2022-08-17T20:31:45.790Z,99770.31
2022-08-17T20:34:33.772Z,99767.63
2022-08-17T20:37:04.403Z,99775.72
2022-08-17T20:39:39.547Z,99790.88
2022-08-17T20:42:30.608Z,99796.84
2022-08-17T20:45:21.625Z,99805.78
2022-08-17T20:48:18.720Z,99812.50
2022-08-17T20:50:45.539Z,99816.63
2022-08-17T20:53:55.540Z,99811.78
2022-08-17T20:56:44.417Z,99806.25
2022-08-17T20:59:25.691Z,99813.88
2022-08-17T21:02:19.348Z,99816.25
2022-08-17T21:04:56.488Z,99819.81
2022-08-17T21:07:42.761Z,99812.09
2022-08-17T21:10:23.712Z,99824.88
2022-08-17T21:13:08.461Z,99820.84
2022-08-17T21:16:13.211Z,99836.56
2022-08-17T21:19:23.847Z,99845.44
2022-08-17T21:22:26.148Z,99851.31
2022-08-17T21:25:11.539Z,99847.75
2022-08-17T21:28:12.707Z,99857.31
2022-08-17T21:30:39.517Z,99862.47
2022-08-17T21:33:12.339Z,99863.56
2022-08-17T21:35:54.044Z,99858.56
2022-08-17T21:38:42.788Z,99863.56
2022-08-17T21:41:28.662Z,99871.75
2022-08-17T21:44:05.429Z,99873.38
2022-08-17T21:46:37.765Z,99867.22
2022-08-17T21:49:13.475Z,99872.22
2022-08-17T21:51:50.563Z,99876.12
2022-08-17T21:54:38.932Z,99881.41
2022-08-17T21:57:15.040Z,99888.41
2022-08-17T21:59:43.818Z,99892.78
2022-08-17T22:02:24.082Z,99886.22
2022-08-17T22:05:06.880Z,99885.56
2022-08-17T22:07:38.867Z,99887.88
2022-08-17T22:10:26.312Z,99883.84
2022-08-17T22:13:06.214Z,99885.63
2022-08-17T22:15:49.404Z,99874.28
2022-08-17T22:18:27.787Z,99881.88
2022-08-17T22:20:59.429Z,99876.31
2022-08-17T22:23:57.253Z,99876.69
2022-08-17T22:26:28.288Z,99870.22
2022-08-17T22:28:59.091Z,99879.16
2022-08-17T22:31:32.878Z,99871.94
2022-08-17T22:34:02.396Z,99872.09
2022-08-17T22:36:30.073Z,99866.63
2022-08-17T22:39:09.700Z,99869.47
2022-08-17T22:41:48.528Z,99858.59
2022-08-17T22:44:24.438Z,99859.13
2022-08-17T22:47:03.525Z,99858.59
2022-08-17T22:49:53.557Z,99853.12
2022-08-17T22:52:36.182Z,99853.97
2022-08-17T22:55:32.645Z,99849.06
2022-08-17T22:58:19.146Z,99839.53
2022-08-17T23:00:48.942Z,99852.00
2022-08-17T23:03:25.045Z,99834.94
2022-08-17T23:06:10.569Z,99831.63
2022-08-17T23:08:58.158Z,99821.84
2022-08-17T23:11:36.646Z,99826.09
2022-08-17T23:14:15.931Z,99822.12
2022-08-17T23:16:42.887Z,99822.88
2022-08-17T23:19:15.469Z,99829.47
2022-08-17T23:21:46.551Z,99826.09
2022-08-17T23:24:26.175Z,99826.16
2022-08-17T23:26:54.678Z,99822.47
2022-08-17T23:29:21.645Z,99821.59
2022-08-17T23:31:50.646Z,99811.28
2022-08-17T23:34:18.694Z,99816.00
2022-08-17T23:36:52.271Z,99819.50
2022-08-17T23:39:27.385Z,99820.56
2022-08-17T23:41:57.251Z,99819.44
2022-08-17T23:44:24.017Z,99818.41
2022-08-17T23:46:52.101Z,99822.62
2022-08-17T23:49:19.276Z,99813.13
2022-08-17T23:51:48.533Z,99810.81
2022-08-17T23:54:21.115Z,99806.72
2022-08-17T23:56:47.946Z,99802.87
2022-08-17T23:59:16.499Z,99818.09
